Airfield :
LOGIN :

Register | Disclaimer

   EN    FR    IT 

 










Legend :    VFR   Marginal VFR   IFR   Intensive IFR   Very Intensive IFR
Visi :
Ceiling :
>= 8 km
>= 3000ft
5 to 8 km
1000 to 3000 ft
1500m to 5 km
500 to 1000 ft
800 to 1500m
200 to 500 ft
< 800m
< 200 ft
Symbols :   Thunderstorms  Fog  Heavy snow  Heavy precipitations  Wind > 20 kt
SIGMETs :     Misc.  Thunderstorms  Icing  Turbulence  Mountain Waves  Volcanic Ashes






- Airport Elevation : 13 ft
- IATA code : CAG


LIEE - Cagliari Elmas

CURRENT METAR :
  • 111350Z 13013KT CAVOK 30/21 Q1014

EXPIRED METARs :
  • 111320Z 14013KT CAVOK 30/21 Q1014
  • 111250Z 16012KT CAVOK 31/16 Q1014
  • 111220Z 17011KT CAVOK 31/17 Q1015
  • 111150Z 17011KT CAVOK 31/17 Q1015
  • 111120Z 17010KT CAVOK 31/18 Q1015
  • 111050Z 17010KT CAVOK 32/17 Q1015

TAF TAF LIEE
Valid from the 11 at 12:00 until the 12 at 12:00 UTC


111100Z 1112/1212 16012KT CAVOK
BECMG 1118/1121 32010KT
BECMG 1208/1210 16012KT



MET'MAP, your aeronautical weather chart ! - Copyright ORBIFLY December 2007 - Disclaimer

ORBIFLY MET'MAP TEAM :

Programming & Development : Alexandra Zaïnal
Concept & original design : Baudouin d'Aumeries
Assistance for programming : Marc-Olivier Méhu
Technical & hardware support : Manuel Goepfert

Contact : metmap@orbifly.com




SOURCES & CREDITS :

   NOAA